sensor_id;sensor_type;location;lat;lon;timestamp;P1;durP1;ratioP1;P2;durP2;ratioP2
80421;SDS011;69763;50.182;9.144;2023-08-30T00:00:15;5.90;;;3.00;;
80421;SDS011;69763;50.182;9.144;2023-08-30T00:02:41;5.95;;;3.30;;
80421;SDS011;69763;50.182;9.144;2023-08-30T00:05:07;5.50;;;3.38;;
80421;SDS011;69763;50.182;9.144;2023-08-30T00:07:34;4.90;;;3.13;;
80421;SDS011;69763;50.182;9.144;2023-08-30T00:09:59;5.45;;;3.00;;
80421;SDS011;69763;50.182;9.144;2023-08-30T00:12:24;5.13;;;3.35;;
80421;SDS011;69763;50.182;9.144;2023-08-30T00:14:50;4.63;;;3.17;;
80421;SDS011;69763;50.182;9.144;2023-08-30T00:17:15;4.55;;;3.10;;
80421;SDS011;69763;50.182;9.144;2023-08-30T00:19:42;5.25;;;3.38;;
80421;SDS011;69763;50.182;9.144;2023-08-30T00:22:07;9.68;;;3.10;;
80421;SDS011;69763;50.182;9.144;2023-08-30T00:24:34;4.65;;;3.13;;
80421;SDS011;69763;50.182;9.144;2023-08-30T00:27:00;5.18;;;3.03;;
80421;SDS011;69763;50.182;9.144;2023-08-30T00:29:26;4.00;;;2.75;;
80421;SDS011;69763;50.182;9.144;2023-08-30T00:31:51;4.55;;;3.00;;
80421;SDS011;69763;50.182;9.144;2023-08-30T00:34:17;5.00;;;3.25;;
80421;SDS011;69763;50.182;9.144;2023-08-30T00:36:42;4.50;;;3.17;;
80421;SDS011;69763;50.182;9.144;2023-08-30T00:39:07;4.93;;;3.22;;
80421;SDS011;69763;50.182;9.144;2023-08-30T00:41:34;11.50;;;3.55;;
80421;SDS011;69763;50.182;9.144;2023-08-30T00:44:00;7.63;;;3.50;;
80421;SDS011;69763;50.182;9.144;2023-08-30T00:46:25;7.03;;;3.60;;
80421;SDS011;69763;50.182;9.144;2023-08-30T00:48:51;5.00;;;3.50;;
80421;SDS011;69763;50.182;9.144;2023-08-30T00:51:17;4.60;;;3.10;;
80421;SDS011;69763;50.182;9.144;2023-08-30T00:53:43;4.00;;;3.33;;
80421;SDS011;69763;50.182;9.144;2023-08-30T00:56:09;4.85;;;3.40;;
80421;SDS011;69763;50.182;9.144;2023-08-30T00:58:36;4.35;;;2.78;;
80421;SDS011;69763;50.182;9.144;2023-08-30T01:01:03;5.15;;;3.20;;
80421;SDS011;69763;50.182;9.144;2023-08-30T01:03:29;6.05;;;3.30;;
80421;SDS011;69763;50.182;9.144;2023-08-30T01:05:54;8.35;;;3.15;;
80421;SDS011;69763;50.182;9.144;2023-08-30T01:08:20;4.40;;;3.38;;
80421;SDS011;69763;50.182;9.144;2023-08-30T01:10:47;4.25;;;2.90;;
80421;SDS011;69763;50.182;9.144;2023-08-30T01:13:19;6.20;;;3.30;;
80421;SDS011;69763;50.182;9.144;2023-08-30T01:15:47;6.88;;;3.03;;
80421;SDS011;69763;50.182;9.144;2023-08-30T01:18:14;4.20;;;3.10;;
80421;SDS011;69763;50.182;9.144;2023-08-30T01:20:42;9.43;;;3.40;;
80421;SDS011;69763;50.182;9.144;2023-08-30T01:23:13;5.43;;;3.22;;
80421;SDS011;69763;50.182;9.144;2023-08-30T01:25:48;4.90;;;3.20;;
80421;SDS011;69763;50.182;9.144;2023-08-30T01:28:22;5.07;;;3.20;;
80421;SDS011;69763;50.182;9.144;2023-08-30T01:30:49;5.10;;;3.38;;
80421;SDS011;69763;50.182;9.144;2023-08-30T01:33:17;4.40;;;3.47;;
80421;SDS011;69763;50.182;9.144;2023-08-30T01:35:43;4.93;;;3.00;;
80421;SDS011;69763;50.182;9.144;2023-08-30T01:38:09;7.07;;;3.13;;
80421;SDS011;69763;50.182;9.144;2023-08-30T01:40:37;7.35;;;3.72;;
80421;SDS011;69763;50.182;9.144;2023-08-30T01:43:04;4.18;;;3.13;;
80421;SDS011;69763;50.182;9.144;2023-08-30T01:45:35;4.10;;;2.92;;
80421;SDS011;69763;50.182;9.144;2023-08-30T01:48:04;5.28;;;3.55;;
80421;SDS011;69763;50.182;9.144;2023-08-30T01:50:32;6.18;;;3.53;;
80421;SDS011;69763;50.182;9.144;2023-08-30T01:55:24;6.40;;;3.70;;
80421;SDS011;69763;50.182;9.144;2023-08-30T01:57:53;5.28;;;3.38;;
80421;SDS011;69763;50.182;9.144;2023-08-30T02:00:19;7.53;;;3.90;;
80421;SDS011;69763;50.182;9.144;2023-08-30T02:02:46;6.60;;;3.78;;
80421;SDS011;69763;50.182;9.144;2023-08-30T02:05:13;8.82;;;3.83;;
80421;SDS011;69763;50.182;9.144;2023-08-30T02:07:40;6.95;;;3.65;;
80421;SDS011;69763;50.182;9.144;2023-08-30T02:10:14;8.25;;;3.80;;
80421;SDS011;69763;50.182;9.144;2023-08-30T02:12:46;5.22;;;3.50;;
80421;SDS011;69763;50.182;9.144;2023-08-30T02:15:13;7.90;;;3.63;;
80421;SDS011;69763;50.182;9.144;2023-08-30T02:17:39;6.70;;;3.80;;
80421;SDS011;69763;50.182;9.144;2023-08-30T02:20:09;6.28;;;3.65;;
80421;SDS011;69763;50.182;9.144;2023-08-30T02:22:35;4.80;;;3.42;;
80421;SDS011;69763;50.182;9.144;2023-08-30T02:25:01;4.72;;;3.20;;
80421;SDS011;69763;50.182;9.144;2023-08-30T02:27:26;5.07;;;3.40;;
80421;SDS011;69763;50.182;9.144;2023-08-30T02:29:52;6.07;;;3.85;;
80421;SDS011;69763;50.182;9.144;2023-08-30T02:32:17;5.07;;;3.35;;
80421;SDS011;69763;50.182;9.144;2023-08-30T02:34:43;11.77;;;3.17;;
80421;SDS011;69763;50.182;9.144;2023-08-30T02:37:09;4.53;;;2.80;;
80421;SDS011;69763;50.182;9.144;2023-08-30T02:39:35;5.90;;;3.60;;
80421;SDS011;69763;50.182;9.144;2023-08-30T02:42:00;6.30;;;3.50;;
80421;SDS011;69763;50.182;9.144;2023-08-30T02:44:25;8.13;;;3.38;;
80421;SDS011;69763;50.182;9.144;2023-08-30T02:46:51;6.57;;;3.50;;
80421;SDS011;69763;50.182;9.144;2023-08-30T02:49:17;5.07;;;3.50;;
80421;SDS011;69763;50.182;9.144;2023-08-30T02:51:42;5.63;;;3.60;;
80421;SDS011;69763;50.182;9.144;2023-08-30T02:54:09;4.55;;;2.90;;
80421;SDS011;69763;50.182;9.144;2023-08-30T02:56:35;7.20;;;3.70;;
80421;SDS011;69763;50.182;9.144;2023-08-30T02:59:00;6.63;;;3.70;;
80421;SDS011;69763;50.182;9.144;2023-08-30T03:01:26;9.05;;;4.07;;
80421;SDS011;69763;50.182;9.144;2023-08-30T03:03:51;6.30;;;3.47;;
80421;SDS011;69763;50.182;9.144;2023-08-30T03:06:17;10.18;;;4.20;;
80421;SDS011;69763;50.182;9.144;2023-08-30T03:08:42;11.10;;;4.30;;
80421;SDS011;69763;50.182;9.144;2023-08-30T03:11:09;8.52;;;4.55;;
80421;SDS011;69763;50.182;9.144;2023-08-30T03:13:35;7.32;;;4.32;;
80421;SDS011;69763;50.182;9.144;2023-08-30T03:16:01;8.90;;;4.55;;
80421;SDS011;69763;50.182;9.144;2023-08-30T03:18:27;6.85;;;4.38;;
80421;SDS011;69763;50.182;9.144;2023-08-30T03:20:59;9.18;;;4.50;;
80421;SDS011;69763;50.182;9.144;2023-08-30T03:23:25;11.13;;;4.47;;
80421;SDS011;69763;50.182;9.144;2023-08-30T03:25:51;6.68;;;4.45;;
80421;SDS011;69763;50.182;9.144;2023-08-30T03:28:18;6.65;;;4.38;;
80421;SDS011;69763;50.182;9.144;2023-08-30T03:30:43;7.40;;;4.25;;
80421;SDS011;69763;50.182;9.144;2023-08-30T03:33:08;7.15;;;4.45;;
80421;SDS011;69763;50.182;9.144;2023-08-30T03:35:34;6.68;;;4.32;;
80421;SDS011;69763;50.182;9.144;2023-08-30T03:38:00;6.47;;;4.18;;
80421;SDS011;69763;50.182;9.144;2023-08-30T03:40:25;5.63;;;4.22;;
80421;SDS011;69763;50.182;9.144;2023-08-30T03:42:51;7.35;;;4.43;;
80421;SDS011;69763;50.182;9.144;2023-08-30T03:45:19;6.72;;;4.07;;
80421;SDS011;69763;50.182;9.144;2023-08-30T03:47:45;7.18;;;4.28;;
80421;SDS011;69763;50.182;9.144;2023-08-30T03:50:10;6.95;;;4.13;;
80421;SDS011;69763;50.182;9.144;2023-08-30T03:52:35;4.88;;;3.70;;
80421;SDS011;69763;50.182;9.144;2023-08-30T03:55:01;6.38;;;3.85;;
80421;SDS011;69763;50.182;9.144;2023-08-30T03:57:26;5.55;;;3.40;;
80421;SDS011;69763;50.182;9.144;2023-08-30T03:59:52;5.85;;;3.55;;
80421;SDS011;69763;50.182;9.144;2023-08-30T04:02:18;6.53;;;4.03;;
80421;SDS011;69763;50.182;9.144;2023-08-30T04:04:46;6.95;;;4.15;;
80421;SDS011;69763;50.182;9.144;2023-08-30T04:07:11;6.30;;;3.92;;
80421;SDS011;69763;50.182;9.144;2023-08-30T04:09:37;6.97;;;4.25;;
80421;SDS011;69763;50.182;9.144;2023-08-30T04:12:03;6.38;;;3.90;;
80421;SDS011;69763;50.182;9.144;2023-08-30T04:14:29;6.90;;;4.32;;
80421;SDS011;69763;50.182;9.144;2023-08-30T04:16:54;11.52;;;4.40;;
80421;SDS011;69763;50.182;9.144;2023-08-30T04:19:21;6.18;;;3.75;;
80421;SDS011;69763;50.182;9.144;2023-08-30T04:21:47;5.25;;;3.80;;
80421;SDS011;69763;50.182;9.144;2023-08-30T04:24:12;5.75;;;3.28;;
80421;SDS011;69763;50.182;9.144;2023-08-30T04:26:37;6.13;;;4.20;;
80421;SDS011;69763;50.182;9.144;2023-08-30T04:29:03;7.38;;;3.90;;
80421;SDS011;69763;50.182;9.144;2023-08-30T04:31:29;6.38;;;3.88;;
80421;SDS011;69763;50.182;9.144;2023-08-30T04:33:54;8.43;;;4.13;;
80421;SDS011;69763;50.182;9.144;2023-08-30T04:36:21;7.50;;;3.90;;
80421;SDS011;69763;50.182;9.144;2023-08-30T04:38:47;6.07;;;3.75;;
80421;SDS011;69763;50.182;9.144;2023-08-30T04:41:12;6.45;;;4.05;;
80421;SDS011;69763;50.182;9.144;2023-08-30T04:43:38;5.53;;;4.10;;
80421;SDS011;69763;50.182;9.144;2023-08-30T04:46:03;6.18;;;4.20;;
80421;SDS011;69763;50.182;9.144;2023-08-30T04:48:28;6.40;;;4.30;;
80421;SDS011;69763;50.182;9.144;2023-08-30T04:51:00;6.18;;;3.78;;
80421;SDS011;69763;50.182;9.144;2023-08-30T04:53:28;5.60;;;3.70;;
80421;SDS011;69763;50.182;9.144;2023-08-30T04:55:53;7.07;;;3.90;;
80421;SDS011;69763;50.182;9.144;2023-08-30T04:58:19;7.28;;;3.55;;
80421;SDS011;69763;50.182;9.144;2023-08-30T05:00:44;8.68;;;4.80;;
80421;SDS011;69763;50.182;9.144;2023-08-30T05:03:10;7.03;;;3.88;;
80421;SDS011;69763;50.182;9.144;2023-08-30T05:05:35;6.85;;;4.20;;
80421;SDS011;69763;50.182;9.144;2023-08-30T05:08:01;7.50;;;4.07;;
80421;SDS011;69763;50.182;9.144;2023-08-30T05:10:28;7.32;;;4.50;;
80421;SDS011;69763;50.182;9.144;2023-08-30T05:12:54;6.95;;;4.75;;
80421;SDS011;69763;50.182;9.144;2023-08-30T05:15:19;10.95;;;4.57;;
80421;SDS011;69763;50.182;9.144;2023-08-30T05:17:45;8.48;;;4.45;;
80421;SDS011;69763;50.182;9.144;2023-08-30T05:20:10;8.27;;;4.78;;
80421;SDS011;69763;50.182;9.144;2023-08-30T05:22:36;10.05;;;4.80;;
80421;SDS011;69763;50.182;9.144;2023-08-30T05:25:01;6.30;;;4.30;;
80421;SDS011;69763;50.182;9.144;2023-08-30T05:27:28;8.38;;;4.57;;
80421;SDS011;69763;50.182;9.144;2023-08-30T05:32:19;6.67;;;4.33;;
80421;SDS011;69763;50.182;9.144;2023-08-30T05:34:44;6.95;;;4.13;;
80421;SDS011;69763;50.182;9.144;2023-08-30T05:37:09;7.70;;;4.78;;
80421;SDS011;69763;50.182;9.144;2023-08-30T05:39:35;6.82;;;4.55;;
80421;SDS011;69763;50.182;9.144;2023-08-30T05:42:00;7.22;;;4.40;;
80421;SDS011;69763;50.182;9.144;2023-08-30T05:44:27;7.80;;;5.00;;
80421;SDS011;69763;50.182;9.144;2023-08-30T05:46:53;8.60;;;4.60;;
80421;SDS011;69763;50.182;9.144;2023-08-30T05:49:18;11.55;;;4.95;;
80421;SDS011;69763;50.182;9.144;2023-08-30T05:51:44;7.85;;;4.78;;
80421;SDS011;69763;50.182;9.144;2023-08-30T05:54:10;14.15;;;4.57;;
80421;SDS011;69763;50.182;9.144;2023-08-30T05:56:35;13.15;;;5.38;;
80421;SDS011;69763;50.182;9.144;2023-08-30T05:59:00;8.52;;;4.70;;
80421;SDS011;69763;50.182;9.144;2023-08-30T06:01:27;9.13;;;5.03;;
80421;SDS011;69763;50.182;9.144;2023-08-30T06:03:53;8.10;;;4.82;;
80421;SDS011;69763;50.182;9.144;2023-08-30T06:06:18;7.70;;;4.97;;
80421;SDS011;69763;50.182;9.144;2023-08-30T06:08:43;10.45;;;4.60;;
80421;SDS011;69763;50.182;9.144;2023-08-30T06:11:09;10.15;;;4.60;;
80421;SDS011;69763;50.182;9.144;2023-08-30T06:13:34;10.95;;;5.45;;
80421;SDS011;69763;50.182;9.144;2023-08-30T06:16:00;7.32;;;4.65;;
80421;SDS011;69763;50.182;9.144;2023-08-30T06:18:29;7.13;;;4.50;;
80421;SDS011;69763;50.182;9.144;2023-08-30T06:20:55;8.68;;;5.35;;
80421;SDS011;69763;50.182;9.144;2023-08-30T06:23:20;7.45;;;4.82;;
80421;SDS011;69763;50.182;9.144;2023-08-30T06:25:52;7.72;;;4.50;;
80421;SDS011;69763;50.182;9.144;2023-08-30T06:28:18;9.05;;;5.07;;
80421;SDS011;69763;50.182;9.144;2023-08-30T06:30:44;6.55;;;4.30;;
80421;SDS011;69763;50.182;9.144;2023-08-30T06:33:09;6.13;;;3.97;;
80421;SDS011;69763;50.182;9.144;2023-08-30T06:35:37;6.03;;;4.15;;
80421;SDS011;69763;50.182;9.144;2023-08-30T06:38:02;7.18;;;4.38;;
80421;SDS011;69763;50.182;9.144;2023-08-30T06:40:28;6.22;;;4.20;;
80421;SDS011;69763;50.182;9.144;2023-08-30T06:42:53;5.90;;;3.85;;
80421;SDS011;69763;50.182;9.144;2023-08-30T06:45:19;4.97;;;3.92;;
80421;SDS011;69763;50.182;9.144;2023-08-30T06:47:44;6.80;;;4.28;;
80421;SDS011;69763;50.182;9.144;2023-08-30T06:50:09;4.60;;;3.58;;
80421;SDS011;69763;50.182;9.144;2023-08-30T06:52:36;6.45;;;4.05;;
80421;SDS011;69763;50.182;9.144;2023-08-30T06:55:02;6.57;;;3.60;;
80421;SDS011;69763;50.182;9.144;2023-08-30T06:57:27;6.25;;;3.53;;
80421;SDS011;69763;50.182;9.144;2023-08-30T06:59:53;5.47;;;3.40;;
80421;SDS011;69763;50.182;9.144;2023-08-30T07:02:18;7.20;;;3.83;;
80421;SDS011;69763;50.182;9.144;2023-08-30T07:04:43;8.15;;;4.78;;
80421;SDS011;69763;50.182;9.144;2023-08-30T07:07:09;6.05;;;3.80;;
80421;SDS011;69763;50.182;9.144;2023-08-30T07:09:36;7.13;;;3.80;;
80421;SDS011;69763;50.182;9.144;2023-08-30T07:12:01;5.88;;;3.70;;
80421;SDS011;69763;50.182;9.144;2023-08-30T07:14:27;6.15;;;3.50;;
80421;SDS011;69763;50.182;9.144;2023-08-30T07:16:52;6.70;;;3.78;;
80421;SDS011;69763;50.182;9.144;2023-08-30T07:19:19;9.30;;;3.78;;
80421;SDS011;69763;50.182;9.144;2023-08-30T07:21:44;6.22;;;3.72;;
80421;SDS011;69763;50.182;9.144;2023-08-30T07:24:09;5.65;;;3.85;;
80421;SDS011;69763;50.182;9.144;2023-08-30T07:26:36;6.50;;;3.70;;
80421;SDS011;69763;50.182;9.144;2023-08-30T07:29:02;5.93;;;3.70;;
80421;SDS011;69763;50.182;9.144;2023-08-30T07:31:29;10.25;;;3.60;;
80421;SDS011;69763;50.182;9.144;2023-08-30T07:33:54;7.43;;;4.22;;
80421;SDS011;69763;50.182;9.144;2023-08-30T07:36:19;14.50;;;4.75;;
80421;SDS011;69763;50.182;9.144;2023-08-30T07:38:45;8.63;;;3.72;;
80421;SDS011;69763;50.182;9.144;2023-08-30T07:41:10;9.50;;;4.20;;
80421;SDS011;69763;50.182;9.144;2023-08-30T07:43:37;7.22;;;3.92;;
80421;SDS011;69763;50.182;9.144;2023-08-30T07:46:03;5.82;;;3.67;;
80421;SDS011;69763;50.182;9.144;2023-08-30T07:48:29;9.52;;;4.55;;
80421;SDS011;69763;50.182;9.144;2023-08-30T07:50:55;7.40;;;3.67;;
80421;SDS011;69763;50.182;9.144;2023-08-30T07:53:21;5.72;;;3.83;;
80421;SDS011;69763;50.182;9.144;2023-08-30T07:55:47;8.63;;;5.60;;
80421;SDS011;69763;50.182;9.144;2023-08-30T07:58:13;6.05;;;4.65;;
80421;SDS011;69763;50.182;9.144;2023-08-30T08:00:40;6.93;;;4.40;;
80421;SDS011;69763;50.182;9.144;2023-08-30T08:03:06;7.57;;;4.50;;
80421;SDS011;69763;50.182;9.144;2023-08-30T08:05:31;6.25;;;4.38;;
80421;SDS011;69763;50.182;9.144;2023-08-30T08:07:59;7.18;;;4.28;;
80421;SDS011;69763;50.182;9.144;2023-08-30T08:10:24;6.35;;;4.38;;
80421;SDS011;69763;50.182;9.144;2023-08-30T08:12:50;7.07;;;4.95;;
80421;SDS011;69763;50.182;9.144;2023-08-30T08:15:16;5.90;;;4.30;;
80421;SDS011;69763;50.182;9.144;2023-08-30T08:17:47;6.88;;;4.10;;
80421;SDS011;69763;50.182;9.144;2023-08-30T08:20:14;8.95;;;4.80;;
80421;SDS011;69763;50.182;9.144;2023-08-30T08:22:40;5.43;;;4.53;;
80421;SDS011;69763;50.182;9.144;2023-08-30T08:25:06;7.70;;;4.60;;
80421;SDS011;69763;50.182;9.144;2023-08-30T08:27:32;7.38;;;4.45;;
80421;SDS011;69763;50.182;9.144;2023-08-30T08:29:57;5.90;;;4.38;;
80421;SDS011;69763;50.182;9.144;2023-08-30T08:32:23;8.38;;;4.95;;
80421;SDS011;69763;50.182;9.144;2023-08-30T08:34:49;8.35;;;4.72;;
80421;SDS011;69763;50.182;9.144;2023-08-30T08:37:15;7.15;;;5.05;;
80421;SDS011;69763;50.182;9.144;2023-08-30T08:39:40;7.05;;;5.47;;
80421;SDS011;69763;50.182;9.144;2023-08-30T08:42:06;8.75;;;5.60;;
80421;SDS011;69763;50.182;9.144;2023-08-30T08:44:32;7.43;;;4.95;;
80421;SDS011;69763;50.182;9.144;2023-08-30T08:47:05;12.50;;;7.00;;
80421;SDS011;69763;50.182;9.144;2023-08-30T08:49:30;6.90;;;5.25;;
80421;SDS011;69763;50.182;9.144;2023-08-30T08:51:57;7.63;;;4.55;;
80421;SDS011;69763;50.182;9.144;2023-08-30T08:54:23;7.05;;;4.35;;
80421;SDS011;69763;50.182;9.144;2023-08-30T08:56:50;9.15;;;4.88;;
80421;SDS011;69763;50.182;9.144;2023-08-30T08:59:16;8.02;;;5.03;;
80421;SDS011;69763;50.182;9.144;2023-08-30T09:01:41;8.07;;;5.45;;
80421;SDS011;69763;50.182;9.144;2023-08-30T09:04:07;9.57;;;5.20;;
80421;SDS011;69763;50.182;9.144;2023-08-30T09:06:33;9.10;;;5.57;;
80421;SDS011;69763;50.182;9.144;2023-08-30T09:09:01;8.68;;;5.50;;
80421;SDS011;69763;50.182;9.144;2023-08-30T09:11:27;6.97;;;4.60;;
80421;SDS011;69763;50.182;9.144;2023-08-30T09:13:53;6.53;;;4.30;;
80421;SDS011;69763;50.182;9.144;2023-08-30T09:16:18;5.88;;;4.22;;
80421;SDS011;69763;50.182;9.144;2023-08-30T09:18:43;9.35;;;5.20;;
80421;SDS011;69763;50.182;9.144;2023-08-30T09:21:09;8.73;;;4.68;;
80421;SDS011;69763;50.182;9.144;2023-08-30T09:23:35;8.32;;;4.70;;
80421;SDS011;69763;50.182;9.144;2023-08-30T09:26:03;5.85;;;4.47;;
80421;SDS011;69763;50.182;9.144;2023-08-30T09:28:31;7.05;;;5.15;;
80421;SDS011;69763;50.182;9.144;2023-08-30T09:31:06;8.38;;;4.90;;
80421;SDS011;69763;50.182;9.144;2023-08-30T09:33:32;6.97;;;5.18;;
80421;SDS011;69763;50.182;9.144;2023-08-30T09:35:58;6.28;;;4.57;;
80421;SDS011;69763;50.182;9.144;2023-08-30T09:38:24;8.30;;;4.43;;
80421;SDS011;69763;50.182;9.144;2023-08-30T09:40:50;10.43;;;5.00;;
80421;SDS011;69763;50.182;9.144;2023-08-30T09:43:19;7.70;;;4.72;;
80421;SDS011;69763;50.182;9.144;2023-08-30T09:45:45;10.82;;;4.93;;
80421;SDS011;69763;50.182;9.144;2023-08-30T09:48:11;6.85;;;4.68;;
80421;SDS011;69763;50.182;9.144;2023-08-30T09:53:05;9.68;;;4.65;;
80421;SDS011;69763;50.182;9.144;2023-08-30T09:55:32;8.25;;;5.35;;
80421;SDS011;69763;50.182;9.144;2023-08-30T09:57:58;6.95;;;4.90;;
80421;SDS011;69763;50.182;9.144;2023-08-30T10:00:31;6.15;;;4.88;;
80421;SDS011;69763;50.182;9.144;2023-08-30T10:02:58;8.90;;;5.15;;
80421;SDS011;69763;50.182;9.144;2023-08-30T10:05:24;6.70;;;5.20;;
80421;SDS011;69763;50.182;9.144;2023-08-30T10:07:50;8.60;;;5.18;;
80421;SDS011;69763;50.182;9.144;2023-08-30T10:10:18;10.02;;;4.68;;
80421;SDS011;69763;50.182;9.144;2023-08-30T10:12:44;7.85;;;5.05;;
80421;SDS011;69763;50.182;9.144;2023-08-30T10:15:11;7.20;;;5.10;;
80421;SDS011;69763;50.182;9.144;2023-08-30T10:20:10;5.88;;;4.88;;
80421;SDS011;69763;50.182;9.144;2023-08-30T10:22:36;7.25;;;5.22;;
80421;SDS011;69763;50.182;9.144;2023-08-30T10:25:06;11.52;;;5.07;;
80421;SDS011;69763;50.182;9.144;2023-08-30T10:27:36;8.90;;;4.95;;
80421;SDS011;69763;50.182;9.144;2023-08-30T10:30:05;6.25;;;4.65;;
80421;SDS011;69763;50.182;9.144;2023-08-30T10:32:37;5.35;;;4.35;;
80421;SDS011;69763;50.182;9.144;2023-08-30T10:35:05;6.07;;;4.57;;
80421;SDS011;69763;50.182;9.144;2023-08-30T10:37:31;7.10;;;4.63;;
80421;SDS011;69763;50.182;9.144;2023-08-30T10:39:59;8.98;;;5.22;;
80421;SDS011;69763;50.182;9.144;2023-08-30T10:42:25;6.95;;;4.45;;
80421;SDS011;69763;50.182;9.144;2023-08-30T10:44:50;7.38;;;3.97;;
80421;SDS011;69763;50.182;9.144;2023-08-30T10:47:19;6.50;;;4.28;;
80421;SDS011;69763;50.182;9.144;2023-08-30T10:49:46;4.95;;;3.83;;
80421;SDS011;69763;50.182;9.144;2023-08-30T10:52:13;6.60;;;4.35;;
80421;SDS011;69763;50.182;9.144;2023-08-30T10:54:38;8.02;;;4.97;;
80421;SDS011;69763;50.182;9.144;2023-08-30T10:57:04;5.57;;;4.32;;
80421;SDS011;69763;50.182;9.144;2023-08-30T10:59:29;6.30;;;4.53;;
80421;SDS011;69763;50.182;9.144;2023-08-30T11:01:55;5.72;;;4.10;;
80421;SDS011;69763;50.182;9.144;2023-08-30T11:04:21;5.35;;;4.20;;
80421;SDS011;69763;50.182;9.144;2023-08-30T11:06:48;6.30;;;4.20;;
80421;SDS011;69763;50.182;9.144;2023-08-30T11:09:16;5.35;;;3.03;;
80421;SDS011;69763;50.182;9.144;2023-08-30T11:11:43;6.20;;;3.75;;
80421;SDS011;69763;50.182;9.144;2023-08-30T11:14:09;5.13;;;3.28;;
80421;SDS011;69763;50.182;9.144;2023-08-30T11:16:35;4.63;;;3.33;;
80421;SDS011;69763;50.182;9.144;2023-08-30T11:21:26;7.67;;;3.10;;
80421;SDS011;69763;50.182;9.144;2023-08-30T11:23:52;3.97;;;3.00;;
80421;SDS011;69763;50.182;9.144;2023-08-30T11:26:18;4.63;;;3.22;;
80421;SDS011;69763;50.182;9.144;2023-08-30T11:28:44;4.40;;;3.25;;
80421;SDS011;69763;50.182;9.144;2023-08-30T11:31:09;4.53;;;3.30;;
80421;SDS011;69763;50.182;9.144;2023-08-30T11:33:34;4.63;;;3.10;;
80421;SDS011;69763;50.182;9.144;2023-08-30T11:36:00;3.88;;;3.28;;
80421;SDS011;69763;50.182;9.144;2023-08-30T11:38:25;4.20;;;3.20;;
80421;SDS011;69763;50.182;9.144;2023-08-30T11:40:51;5.47;;;3.50;;
80421;SDS011;69763;50.182;9.144;2023-08-30T11:43:18;5.25;;;2.95;;
80421;SDS011;69763;50.182;9.144;2023-08-30T11:45:44;5.38;;;3.22;;
80421;SDS011;69763;50.182;9.144;2023-08-30T11:48:10;5.00;;;3.13;;
80421;SDS011;69763;50.182;9.144;2023-08-30T11:50:36;5.15;;;2.80;;
80421;SDS011;69763;50.182;9.144;2023-08-30T11:53:02;5.38;;;3.00;;
80421;SDS011;69763;50.182;9.144;2023-08-30T11:55:28;3.17;;;2.50;;
80421;SDS011;69763;50.182;9.144;2023-08-30T11:57:54;4.47;;;2.80;;
80421;SDS011;69763;50.182;9.144;2023-08-30T12:00:21;5.05;;;2.85;;
80421;SDS011;69763;50.182;9.144;2023-08-30T12:02:47;4.95;;;3.28;;
80421;SDS011;69763;50.182;9.144;2023-08-30T12:05:13;5.10;;;2.63;;
80421;SDS011;69763;50.182;9.144;2023-08-30T12:07:39;7.90;;;3.25;;
80421;SDS011;69763;50.182;9.144;2023-08-30T12:12:30;5.05;;;2.65;;
80421;SDS011;69763;50.182;9.144;2023-08-30T12:14:56;4.85;;;3.15;;
80421;SDS011;69763;50.182;9.144;2023-08-30T12:17:23;3.70;;;2.80;;
80421;SDS011;69763;50.182;9.144;2023-08-30T12:19:54;3.30;;;2.50;;
80421;SDS011;69763;50.182;9.144;2023-08-30T12:22:20;7.10;;;3.00;;
80421;SDS011;69763;50.182;9.144;2023-08-30T12:24:45;6.05;;;2.97;;
80421;SDS011;69763;50.182;9.144;2023-08-30T12:27:11;5.30;;;2.95;;
80421;SDS011;69763;50.182;9.144;2023-08-30T12:29:37;4.32;;;2.70;;
80421;SDS011;69763;50.182;9.144;2023-08-30T12:32:02;6.65;;;2.97;;
80421;SDS011;69763;50.182;9.144;2023-08-30T12:36:55;4.38;;;2.60;;
80421;SDS011;69763;50.182;9.144;2023-08-30T12:39:20;6.97;;;2.72;;
80421;SDS011;69763;50.182;9.144;2023-08-30T12:41:46;3.42;;;2.63;;
80421;SDS011;69763;50.182;9.144;2023-08-30T12:44:11;6.22;;;2.63;;
80421;SDS011;69763;50.182;9.144;2023-08-30T12:46:37;4.68;;;2.22;;
80421;SDS011;69763;50.182;9.144;2023-08-30T12:49:02;3.70;;;2.40;;
80421;SDS011;69763;50.182;9.144;2023-08-30T12:51:29;6.70;;;2.83;;
80421;SDS011;69763;50.182;9.144;2023-08-30T12:53:55;3.83;;;2.40;;
80421;SDS011;69763;50.182;9.144;2023-08-30T12:56:20;5.78;;;2.50;;
80421;SDS011;69763;50.182;9.144;2023-08-30T12:58:46;5.43;;;2.65;;
80421;SDS011;69763;50.182;9.144;2023-08-30T13:01:11;3.30;;;2.80;;
80421;SDS011;69763;50.182;9.144;2023-08-30T13:03:36;3.38;;;2.50;;
80421;SDS011;69763;50.182;9.144;2023-08-30T13:06:02;3.38;;;2.33;;
80421;SDS011;69763;50.182;9.144;2023-08-30T13:08:29;2.83;;;2.15;;
80421;SDS011;69763;50.182;9.144;2023-08-30T13:10:54;5.05;;;2.35;;
80421;SDS011;69763;50.182;9.144;2023-08-30T13:13:19;3.28;;;2.00;;
80421;SDS011;69763;50.182;9.144;2023-08-30T13:15:45;3.38;;;2.22;;
80421;SDS011;69763;50.182;9.144;2023-08-30T13:20:37;3.17;;;2.17;;
80421;SDS011;69763;50.182;9.144;2023-08-30T13:23:03;5.57;;;2.45;;
80421;SDS011;69763;50.182;9.144;2023-08-30T13:25:30;3.95;;;2.45;;
80421;SDS011;69763;50.182;9.144;2023-08-30T13:27:55;3.03;;;2.25;;
80421;SDS011;69763;50.182;9.144;2023-08-30T13:30:21;4.88;;;2.50;;
80421;SDS011;69763;50.182;9.144;2023-08-30T13:32:46;4.57;;;2.03;;
80421;SDS011;69763;50.182;9.144;2023-08-30T13:35:11;7.03;;;2.65;;
80421;SDS011;69763;50.182;9.144;2023-08-30T13:37:37;3.58;;;2.58;;
80421;SDS011;69763;50.182;9.144;2023-08-30T13:40:02;4.68;;;2.50;;
80421;SDS011;69763;50.182;9.144;2023-08-30T13:42:29;4.53;;;2.90;;
80421;SDS011;69763;50.182;9.144;2023-08-30T13:44:55;5.47;;;3.22;;
80421;SDS011;69763;50.182;9.144;2023-08-30T13:47:20;4.53;;;2.80;;
80421;SDS011;69763;50.182;9.144;2023-08-30T13:49:45;6.68;;;2.70;;
80421;SDS011;69763;50.182;9.144;2023-08-30T13:52:11;5.47;;;2.80;;
80421;SDS011;69763;50.182;9.144;2023-08-30T13:54:36;4.32;;;3.08;;
80421;SDS011;69763;50.182;9.144;2023-08-30T13:57:02;4.65;;;2.70;;
80421;SDS011;69763;50.182;9.144;2023-08-30T13:59:28;3.92;;;2.67;;
80421;SDS011;69763;50.182;9.144;2023-08-30T14:01:54;3.22;;;2.53;;
80421;SDS011;69763;50.182;9.144;2023-08-30T14:04:19;3.65;;;2.78;;
80421;SDS011;69763;50.182;9.144;2023-08-30T14:06:45;4.35;;;3.22;;
80421;SDS011;69763;50.182;9.144;2023-08-30T14:09:10;8.25;;;3.33;;
80421;SDS011;69763;50.182;9.144;2023-08-30T14:11:35;3.70;;;2.92;;
80421;SDS011;69763;50.182;9.144;2023-08-30T14:14:01;4.53;;;2.90;;
80421;SDS011;69763;50.182;9.144;2023-08-30T14:16:28;4.30;;;3.10;;
80421;SDS011;69763;50.182;9.144;2023-08-30T14:18:53;8.02;;;3.00;;
80421;SDS011;69763;50.182;9.144;2023-08-30T14:21:19;5.40;;;2.83;;
80421;SDS011;69763;50.182;9.144;2023-08-30T14:23:45;4.85;;;2.80;;
80421;SDS011;69763;50.182;9.144;2023-08-30T14:26:10;6.93;;;3.03;;
80421;SDS011;69763;50.182;9.144;2023-08-30T14:28:36;5.47;;;3.42;;
80421;SDS011;69763;50.182;9.144;2023-08-30T14:31:02;6.40;;;3.33;;
80421;SDS011;69763;50.182;9.144;2023-08-30T14:33:29;5.88;;;3.22;;
80421;SDS011;69763;50.182;9.144;2023-08-30T14:35:54;4.53;;;3.65;;
80421;SDS011;69763;50.182;9.144;2023-08-30T14:38:20;4.80;;;3.00;;
80421;SDS011;69763;50.182;9.144;2023-08-30T14:40:53;6.03;;;3.67;;
80421;SDS011;69763;50.182;9.144;2023-08-30T14:43:19;5.32;;;3.45;;
80421;SDS011;69763;50.182;9.144;2023-08-30T14:45:45;4.88;;;3.00;;
80421;SDS011;69763;50.182;9.144;2023-08-30T14:48:10;4.53;;;3.00;;
80421;SDS011;69763;50.182;9.144;2023-08-30T14:50:37;6.75;;;3.53;;
80421;SDS011;69763;50.182;9.144;2023-08-30T14:53:02;5.22;;;3.42;;
80421;SDS011;69763;50.182;9.144;2023-08-30T14:55:28;4.88;;;3.30;;
80421;SDS011;69763;50.182;9.144;2023-08-30T14:57:53;7.78;;;3.58;;
80421;SDS011;69763;50.182;9.144;2023-08-30T15:00:19;6.55;;;3.25;;